sensor_id;sensor_type;location;lat;lon;timestamp;P1;durP1;ratioP1;P2;durP2;ratioP2
75450;SDS011;64029;48.244;9.188;2024-03-08T00:00:09;33.93;;;19.83;;
75450;SDS011;64029;48.244;9.188;2024-03-08T00:02:39;31.53;;;18.90;;
75450;SDS011;64029;48.244;9.188;2024-03-08T00:05:06;34.43;;;18.93;;
75450;SDS011;64029;48.244;9.188;2024-03-08T00:07:34;33.57;;;20.57;;
75450;SDS011;64029;48.244;9.188;2024-03-08T00:10:01;32.97;;;18.83;;
75450;SDS011;64029;48.244;9.188;2024-03-08T00:12:28;34.97;;;20.13;;
75450;SDS011;64029;48.244;9.188;2024-03-08T00:14:55;33.47;;;19.67;;
75450;SDS011;64029;48.244;9.188;2024-03-08T00:17:22;35.60;;;19.13;;
75450;SDS011;64029;48.244;9.188;2024-03-08T00:19:51;31.80;;;19.43;;
75450;SDS011;64029;48.244;9.188;2024-03-08T00:22:18;40.57;;;22.30;;
75450;SDS011;64029;48.244;9.188;2024-03-08T00:24:45;40.90;;;19.63;;
75450;SDS011;64029;48.244;9.188;2024-03-08T00:27:12;40.00;;;21.10;;
75450;SDS011;64029;48.244;9.188;2024-03-08T00:29:39;37.27;;;20.90;;
75450;SDS011;64029;48.244;9.188;2024-03-08T00:32:05;37.93;;;20.60;;
75450;SDS011;64029;48.244;9.188;2024-03-08T00:34:34;34.87;;;20.80;;
75450;SDS011;64029;48.244;9.188;2024-03-08T00:37:04;37.40;;;20.20;;
75450;SDS011;64029;48.244;9.188;2024-03-08T00:39:31;35.10;;;21.13;;
75450;SDS011;64029;48.244;9.188;2024-03-08T00:41:58;34.97;;;18.87;;
75450;SDS011;64029;48.244;9.188;2024-03-08T00:44:24;33.90;;;19.50;;
75450;SDS011;64029;48.244;9.188;2024-03-08T00:46:51;33.60;;;19.87;;
75450;SDS011;64029;48.244;9.188;2024-03-08T00:49:18;38.23;;;20.60;;
75450;SDS011;64029;48.244;9.188;2024-03-08T00:51:45;31.67;;;20.27;;
75450;SDS011;64029;48.244;9.188;2024-03-08T00:54:13;35.37;;;20.73;;
75450;SDS011;64029;48.244;9.188;2024-03-08T00:56:40;37.53;;;21.43;;
75450;SDS011;64029;48.244;9.188;2024-03-08T00:59:07;37.30;;;21.07;;
75450;SDS011;64029;48.244;9.188;2024-03-08T01:01:33;35.27;;;19.97;;
75450;SDS011;64029;48.244;9.188;2024-03-08T01:04:00;40.03;;;21.80;;
75450;SDS011;64029;48.244;9.188;2024-03-08T01:06:27;37.93;;;21.33;;
75450;SDS011;64029;48.244;9.188;2024-03-08T01:08:54;38.47;;;21.47;;
75450;SDS011;64029;48.244;9.188;2024-03-08T01:11:22;39.80;;;21.97;;
75450;SDS011;64029;48.244;9.188;2024-03-08T01:13:49;38.40;;;20.33;;
75450;SDS011;64029;48.244;9.188;2024-03-08T01:16:16;40.30;;;22.63;;
75450;SDS011;64029;48.244;9.188;2024-03-08T01:18:43;36.43;;;20.30;;
75450;SDS011;64029;48.244;9.188;2024-03-08T01:21:10;34.70;;;21.20;;
75450;SDS011;64029;48.244;9.188;2024-03-08T01:23:37;37.67;;;21.37;;
75450;SDS011;64029;48.244;9.188;2024-03-08T01:26:03;42.27;;;21.20;;
75450;SDS011;64029;48.244;9.188;2024-03-08T01:28:32;39.00;;;20.53;;
75450;SDS011;64029;48.244;9.188;2024-03-08T01:30:59;37.13;;;19.90;;
75450;SDS011;64029;48.244;9.188;2024-03-08T01:33:28;40.10;;;21.97;;
75450;SDS011;64029;48.244;9.188;2024-03-08T01:35:56;39.47;;;21.60;;
75450;SDS011;64029;48.244;9.188;2024-03-08T01:38:23;40.90;;;23.93;;
75450;SDS011;64029;48.244;9.188;2024-03-08T01:40:50;40.30;;;22.77;;
75450;SDS011;64029;48.244;9.188;2024-03-08T01:43:18;39.80;;;21.80;;
75450;SDS011;64029;48.244;9.188;2024-03-08T01:45:47;40.23;;;21.97;;
75450;SDS011;64029;48.244;9.188;2024-03-08T01:48:14;38.63;;;20.13;;
75450;SDS011;64029;48.244;9.188;2024-03-08T01:50:42;39.67;;;22.33;;
75450;SDS011;64029;48.244;9.188;2024-03-08T01:53:09;43.40;;;22.20;;
75450;SDS011;64029;48.244;9.188;2024-03-08T01:55:37;40.50;;;22.07;;
75450;SDS011;64029;48.244;9.188;2024-03-08T01:58:06;41.00;;;22.43;;
75450;SDS011;64029;48.244;9.188;2024-03-08T02:00:36;38.57;;;23.30;;
75450;SDS011;64029;48.244;9.188;2024-03-08T02:03:07;41.17;;;23.07;;
75450;SDS011;64029;48.244;9.188;2024-03-08T02:05:34;40.13;;;22.70;;
75450;SDS011;64029;48.244;9.188;2024-03-08T02:08:03;37.47;;;21.83;;
75450;SDS011;64029;48.244;9.188;2024-03-08T02:10:32;39.60;;;21.80;;
75450;SDS011;64029;48.244;9.188;2024-03-08T02:12:59;39.97;;;21.27;;
75450;SDS011;64029;48.244;9.188;2024-03-08T02:18:21;40.87;;;21.90;;
75450;SDS011;64029;48.244;9.188;2024-03-08T02:20:50;39.37;;;20.27;;
75450;SDS011;64029;48.244;9.188;2024-03-08T02:23:18;39.17;;;21.13;;
75450;SDS011;64029;48.244;9.188;2024-03-08T02:25:45;45.50;;;23.47;;
75450;SDS011;64029;48.244;9.188;2024-03-08T02:28:12;43.47;;;22.93;;
75450;SDS011;64029;48.244;9.188;2024-03-08T02:30:40;36.90;;;22.50;;
75450;SDS011;64029;48.244;9.188;2024-03-08T02:33:07;46.40;;;23.23;;
75450;SDS011;64029;48.244;9.188;2024-03-08T02:35:34;37.67;;;21.70;;
75450;SDS011;64029;48.244;9.188;2024-03-08T02:38:03;43.60;;;22.77;;
75450;SDS011;64029;48.244;9.188;2024-03-08T02:40:30;41.53;;;22.70;;
75450;SDS011;64029;48.244;9.188;2024-03-08T02:42:57;36.73;;;21.93;;
75450;SDS011;64029;48.244;9.188;2024-03-08T02:45:24;37.00;;;21.53;;
75450;SDS011;64029;48.244;9.188;2024-03-08T02:47:51;37.77;;;21.60;;
75450;SDS011;64029;48.244;9.188;2024-03-08T02:50:18;38.90;;;22.33;;
75450;SDS011;64029;48.244;9.188;2024-03-08T02:52:45;41.07;;;22.53;;
75450;SDS011;64029;48.244;9.188;2024-03-08T02:55:14;44.57;;;22.50;;
75450;SDS011;64029;48.244;9.188;2024-03-08T02:57:41;40.63;;;22.17;;
75450;SDS011;64029;48.244;9.188;2024-03-08T03:00:09;42.43;;;25.37;;
75450;SDS011;64029;48.244;9.188;2024-03-08T03:02:36;40.40;;;22.87;;
75450;SDS011;64029;48.244;9.188;2024-03-08T03:05:03;38.23;;;21.90;;
75450;SDS011;64029;48.244;9.188;2024-03-08T03:07:31;43.80;;;23.97;;
75450;SDS011;64029;48.244;9.188;2024-03-08T03:09:58;41.43;;;22.17;;
75450;SDS011;64029;48.244;9.188;2024-03-08T03:12:28;39.27;;;23.40;;
75450;SDS011;64029;48.244;9.188;2024-03-08T03:14:55;44.37;;;24.27;;
75450;SDS011;64029;48.244;9.188;2024-03-08T03:17:22;45.00;;;22.80;;
75450;SDS011;64029;48.244;9.188;2024-03-08T03:19:49;35.70;;;21.00;;
75450;SDS011;64029;48.244;9.188;2024-03-08T03:22:16;40.13;;;22.80;;
75450;SDS011;64029;48.244;9.188;2024-03-08T03:24:43;44.80;;;24.17;;
75450;SDS011;64029;48.244;9.188;2024-03-08T03:27:11;43.57;;;23.20;;
75450;SDS011;64029;48.244;9.188;2024-03-08T03:29:39;40.43;;;22.70;;
75450;SDS011;64029;48.244;9.188;2024-03-08T03:32:07;39.50;;;21.87;;
75450;SDS011;64029;48.244;9.188;2024-03-08T03:34:34;42.83;;;22.30;;
75450;SDS011;64029;48.244;9.188;2024-03-08T03:37:02;46.87;;;24.33;;
75450;SDS011;64029;48.244;9.188;2024-03-08T03:39:29;40.07;;;23.57;;
75450;SDS011;64029;48.244;9.188;2024-03-08T03:41:57;49.63;;;24.33;;
75450;SDS011;64029;48.244;9.188;2024-03-08T03:44:24;39.13;;;23.83;;
75450;SDS011;64029;48.244;9.188;2024-03-08T03:46:52;44.93;;;21.87;;
75450;SDS011;64029;48.244;9.188;2024-03-08T03:49:19;36.77;;;21.90;;
75450;SDS011;64029;48.244;9.188;2024-03-08T03:51:46;41.80;;;22.83;;
75450;SDS011;64029;48.244;9.188;2024-03-08T03:54:13;41.97;;;22.57;;
75450;SDS011;64029;48.244;9.188;2024-03-08T03:56:39;42.10;;;22.60;;
75450;SDS011;64029;48.244;9.188;2024-03-08T03:59:06;38.37;;;22.03;;
75450;SDS011;64029;48.244;9.188;2024-03-08T04:01:33;36.00;;;21.40;;
75450;SDS011;64029;48.244;9.188;2024-03-08T04:04:02;41.97;;;23.53;;
75450;SDS011;64029;48.244;9.188;2024-03-08T04:06:30;42.77;;;23.77;;
75450;SDS011;64029;48.244;9.188;2024-03-08T04:08:57;40.97;;;23.13;;
75450;SDS011;64029;48.244;9.188;2024-03-08T04:11:24;44.77;;;24.00;;
75450;SDS011;64029;48.244;9.188;2024-03-08T04:13:51;41.47;;;22.43;;
75450;SDS011;64029;48.244;9.188;2024-03-08T04:16:19;40.13;;;22.30;;
75450;SDS011;64029;48.244;9.188;2024-03-08T04:18:46;41.80;;;22.53;;
75450;SDS011;64029;48.244;9.188;2024-03-08T04:21:14;40.43;;;21.20;;
75450;SDS011;64029;48.244;9.188;2024-03-08T04:23:42;38.93;;;22.47;;
75450;SDS011;64029;48.244;9.188;2024-03-08T04:26:10;43.30;;;23.87;;
75450;SDS011;64029;48.244;9.188;2024-03-08T04:28:38;38.70;;;20.87;;
75450;SDS011;64029;48.244;9.188;2024-03-08T04:31:05;42.17;;;23.17;;
75450;SDS011;64029;48.244;9.188;2024-03-08T04:33:32;41.20;;;23.33;;
75450;SDS011;64029;48.244;9.188;2024-03-08T04:36:00;46.10;;;22.80;;
75450;SDS011;64029;48.244;9.188;2024-03-08T04:38:30;44.60;;;23.57;;
75450;SDS011;64029;48.244;9.188;2024-03-08T04:40:57;41.97;;;22.77;;
75450;SDS011;64029;48.244;9.188;2024-03-08T04:43:27;43.37;;;23.87;;
75450;SDS011;64029;48.244;9.188;2024-03-08T04:45:55;43.47;;;24.47;;
75450;SDS011;64029;48.244;9.188;2024-03-08T04:48:22;42.13;;;23.00;;
75450;SDS011;64029;48.244;9.188;2024-03-08T04:50:51;39.60;;;23.23;;
75450;SDS011;64029;48.244;9.188;2024-03-08T04:53:19;44.83;;;24.10;;
75450;SDS011;64029;48.244;9.188;2024-03-08T04:55:47;45.70;;;24.17;;
75450;SDS011;64029;48.244;9.188;2024-03-08T04:58:14;44.00;;;23.90;;
75450;SDS011;64029;48.244;9.188;2024-03-08T05:00:41;43.73;;;22.70;;
75450;SDS011;64029;48.244;9.188;2024-03-08T05:03:08;47.20;;;25.50;;
75450;SDS011;64029;48.244;9.188;2024-03-08T05:05:35;42.07;;;23.57;;
75450;SDS011;64029;48.244;9.188;2024-03-08T05:08:02;46.70;;;24.50;;
75450;SDS011;64029;48.244;9.188;2024-03-08T05:10:29;47.93;;;24.20;;
75450;SDS011;64029;48.244;9.188;2024-03-08T05:12:57;41.60;;;24.50;;
75450;SDS011;64029;48.244;9.188;2024-03-08T05:15:24;46.60;;;23.87;;
75450;SDS011;64029;48.244;9.188;2024-03-08T05:17:51;46.37;;;23.30;;
75450;SDS011;64029;48.244;9.188;2024-03-08T05:20:17;45.20;;;22.27;;
75450;SDS011;64029;48.244;9.188;2024-03-08T05:22:44;42.60;;;23.57;;
75450;SDS011;64029;48.244;9.188;2024-03-08T05:25:11;43.13;;;22.97;;
75450;SDS011;64029;48.244;9.188;2024-03-08T05:27:39;43.87;;;23.23;;
75450;SDS011;64029;48.244;9.188;2024-03-08T05:30:08;37.40;;;22.53;;
75450;SDS011;64029;48.244;9.188;2024-03-08T05:32:39;41.00;;;22.13;;
75450;SDS011;64029;48.244;9.188;2024-03-08T05:35:06;39.40;;;21.97;;
75450;SDS011;64029;48.244;9.188;2024-03-08T05:37:33;41.90;;;23.00;;
75450;SDS011;64029;48.244;9.188;2024-03-08T05:40:00;41.47;;;20.43;;
75450;SDS011;64029;48.244;9.188;2024-03-08T05:42:28;39.53;;;22.10;;
75450;SDS011;64029;48.244;9.188;2024-03-08T05:44:55;41.90;;;23.00;;
75450;SDS011;64029;48.244;9.188;2024-03-08T05:47:23;36.00;;;20.23;;
75450;SDS011;64029;48.244;9.188;2024-03-08T05:49:50;40.73;;;22.07;;
75450;SDS011;64029;48.244;9.188;2024-03-08T05:52:18;40.47;;;21.67;;
75450;SDS011;64029;48.244;9.188;2024-03-08T05:54:45;43.63;;;21.60;;
75450;SDS011;64029;48.244;9.188;2024-03-08T05:57:12;35.97;;;19.73;;
75450;SDS011;64029;48.244;9.188;2024-03-08T05:59:39;38.60;;;20.47;;
75450;SDS011;64029;48.244;9.188;2024-03-08T06:02:06;40.20;;;21.40;;
75450;SDS011;64029;48.244;9.188;2024-03-08T06:04:34;40.33;;;22.17;;
75450;SDS011;64029;48.244;9.188;2024-03-08T06:07:01;45.37;;;21.67;;
75450;SDS011;64029;48.244;9.188;2024-03-08T06:09:28;39.07;;;21.37;;
75450;SDS011;64029;48.244;9.188;2024-03-08T06:11:55;43.03;;;21.50;;
75450;SDS011;64029;48.244;9.188;2024-03-08T06:14:22;38.13;;;21.37;;
75450;SDS011;64029;48.244;9.188;2024-03-08T06:16:49;40.37;;;21.30;;
75450;SDS011;64029;48.244;9.188;2024-03-08T06:19:16;33.80;;;20.40;;
75450;SDS011;64029;48.244;9.188;2024-03-08T06:21:44;42.60;;;21.97;;
75450;SDS011;64029;48.244;9.188;2024-03-08T06:24:11;39.60;;;20.97;;
75450;SDS011;64029;48.244;9.188;2024-03-08T06:26:40;40.53;;;21.50;;
75450;SDS011;64029;48.244;9.188;2024-03-08T06:29:06;39.70;;;21.47;;
75450;SDS011;64029;48.244;9.188;2024-03-08T06:31:33;40.27;;;23.93;;
75450;SDS011;64029;48.244;9.188;2024-03-08T06:34:03;40.33;;;23.33;;
75450;SDS011;64029;48.244;9.188;2024-03-08T06:36:32;44.53;;;22.53;;
75450;SDS011;64029;48.244;9.188;2024-03-08T06:39:01;39.83;;;22.27;;
75450;SDS011;64029;48.244;9.188;2024-03-08T06:41:34;39.07;;;21.37;;
75450;SDS011;64029;48.244;9.188;2024-03-08T06:44:01;34.67;;;20.00;;
75450;SDS011;64029;48.244;9.188;2024-03-08T06:46:28;35.73;;;20.63;;
75450;SDS011;64029;48.244;9.188;2024-03-08T06:48:54;38.13;;;19.93;;
75450;SDS011;64029;48.244;9.188;2024-03-08T06:51:22;34.30;;;19.20;;
75450;SDS011;64029;48.244;9.188;2024-03-08T06:53:49;37.43;;;19.37;;
75450;SDS011;64029;48.244;9.188;2024-03-08T06:56:18;39.20;;;20.10;;
75450;SDS011;64029;48.244;9.188;2024-03-08T06:58:45;37.10;;;19.90;;
75450;SDS011;64029;48.244;9.188;2024-03-08T07:01:13;33.73;;;19.47;;
75450;SDS011;64029;48.244;9.188;2024-03-08T07:03:41;34.40;;;19.07;;
75450;SDS011;64029;48.244;9.188;2024-03-08T07:06:09;38.00;;;20.83;;
75450;SDS011;64029;48.244;9.188;2024-03-08T07:08:36;32.57;;;18.63;;
75450;SDS011;64029;48.244;9.188;2024-03-08T07:11:03;37.60;;;19.80;;
75450;SDS011;64029;48.244;9.188;2024-03-08T07:13:31;33.87;;;18.90;;
75450;SDS011;64029;48.244;9.188;2024-03-08T07:15:58;35.53;;;20.23;;
75450;SDS011;64029;48.244;9.188;2024-03-08T07:18:26;34.63;;;18.63;;
75450;SDS011;64029;48.244;9.188;2024-03-08T07:20:54;32.97;;;18.27;;
75450;SDS011;64029;48.244;9.188;2024-03-08T07:23:21;34.73;;;17.80;;
75450;SDS011;64029;48.244;9.188;2024-03-08T07:26:02;33.47;;;19.30;;
75450;SDS011;64029;48.244;9.188;2024-03-08T07:28:29;38.40;;;20.03;;
75450;SDS011;64029;48.244;9.188;2024-03-08T07:30:58;37.73;;;19.43;;
75450;SDS011;64029;48.244;9.188;2024-03-08T07:33:42;37.87;;;20.00;;
75450;SDS011;64029;48.244;9.188;2024-03-08T07:36:09;28.87;;;16.87;;
75450;SDS011;64029;48.244;9.188;2024-03-08T07:38:36;31.63;;;20.27;;
75450;SDS011;64029;48.244;9.188;2024-03-08T07:41:03;35.83;;;18.77;;
75450;SDS011;64029;48.244;9.188;2024-03-08T07:43:30;27.57;;;15.80;;
75450;SDS011;64029;48.244;9.188;2024-03-08T07:45:59;37.87;;;18.70;;
75450;SDS011;64029;48.244;9.188;2024-03-08T07:48:25;33.20;;;18.03;;
75450;SDS011;64029;48.244;9.188;2024-03-08T07:50:52;35.20;;;19.30;;
75450;SDS011;64029;48.244;9.188;2024-03-08T07:53:19;35.07;;;19.43;;
75450;SDS011;64029;48.244;9.188;2024-03-08T07:55:46;34.10;;;19.13;;
75450;SDS011;64029;48.244;9.188;2024-03-08T07:58:13;36.93;;;19.73;;
75450;SDS011;64029;48.244;9.188;2024-03-08T08:00:39;34.40;;;18.30;;
75450;SDS011;64029;48.244;9.188;2024-03-08T08:03:09;37.60;;;19.87;;
75450;SDS011;64029;48.244;9.188;2024-03-08T08:05:37;34.40;;;18.80;;
75450;SDS011;64029;48.244;9.188;2024-03-08T08:08:04;35.90;;;18.30;;
75450;SDS011;64029;48.244;9.188;2024-03-08T08:10:32;33.03;;;19.07;;
75450;SDS011;64029;48.244;9.188;2024-03-08T08:12:59;29.87;;;17.37;;
75450;SDS011;64029;48.244;9.188;2024-03-08T08:15:25;34.23;;;19.40;;
75450;SDS011;64029;48.244;9.188;2024-03-08T08:17:53;35.93;;;18.47;;
75450;SDS011;64029;48.244;9.188;2024-03-08T08:20:21;35.93;;;18.77;;
75450;SDS011;64029;48.244;9.188;2024-03-08T08:22:49;33.00;;;20.03;;
75450;SDS011;64029;48.244;9.188;2024-03-08T08:25:16;31.33;;;19.57;;
75450;SDS011;64029;48.244;9.188;2024-03-08T08:27:45;31.70;;;18.63;;
75450;SDS011;64029;48.244;9.188;2024-03-08T08:30:12;37.77;;;19.90;;
75450;SDS011;64029;48.244;9.188;2024-03-08T08:32:39;36.40;;;19.67;;
75450;SDS011;64029;48.244;9.188;2024-03-08T08:35:07;35.83;;;19.57;;
75450;SDS011;64029;48.244;9.188;2024-03-08T08:37:39;34.20;;;18.60;;
75450;SDS011;64029;48.244;9.188;2024-03-08T08:40:06;40.13;;;21.20;;
75450;SDS011;64029;48.244;9.188;2024-03-08T08:42:35;32.97;;;18.40;;
75450;SDS011;64029;48.244;9.188;2024-03-08T08:45:03;35.57;;;20.27;;
75450;SDS011;64029;48.244;9.188;2024-03-08T08:47:33;36.57;;;20.07;;
75450;SDS011;64029;48.244;9.188;2024-03-08T08:50:00;33.53;;;20.23;;
75450;SDS011;64029;48.244;9.188;2024-03-08T08:52:29;37.30;;;19.80;;
75450;SDS011;64029;48.244;9.188;2024-03-08T08:54:57;33.40;;;18.80;;
75450;SDS011;64029;48.244;9.188;2024-03-08T08:57:24;32.00;;;18.70;;
75450;SDS011;64029;48.244;9.188;2024-03-08T08:59:52;34.63;;;20.47;;
75450;SDS011;64029;48.244;9.188;2024-03-08T09:02:20;37.10;;;20.67;;
75450;SDS011;64029;48.244;9.188;2024-03-08T09:04:47;34.03;;;19.73;;
75450;SDS011;64029;48.244;9.188;2024-03-08T09:07:14;34.53;;;19.17;;
75450;SDS011;64029;48.244;9.188;2024-03-08T09:09:42;37.20;;;20.70;;
75450;SDS011;64029;48.244;9.188;2024-03-08T09:12:10;31.93;;;18.50;;
75450;SDS011;64029;48.244;9.188;2024-03-08T09:14:38;34.27;;;19.57;;
75450;SDS011;64029;48.244;9.188;2024-03-08T09:17:05;29.10;;;17.67;;
75450;SDS011;64029;48.244;9.188;2024-03-08T09:19:33;29.77;;;17.50;;
75450;SDS011;64029;48.244;9.188;2024-03-08T09:22:00;30.63;;;18.53;;
75450;SDS011;64029;48.244;9.188;2024-03-08T09:24:28;35.03;;;16.70;;
75450;SDS011;64029;48.244;9.188;2024-03-08T09:26:56;26.70;;;15.83;;
75450;SDS011;64029;48.244;9.188;2024-03-08T09:29:25;30.17;;;17.40;;
75450;SDS011;64029;48.244;9.188;2024-03-08T09:31:52;31.13;;;16.50;;
75450;SDS011;64029;48.244;9.188;2024-03-08T09:34:18;30.63;;;16.10;;
75450;SDS011;64029;48.244;9.188;2024-03-08T09:36:45;28.30;;;16.77;;
75450;SDS011;64029;48.244;9.188;2024-03-08T09:39:12;23.43;;;14.27;;
75450;SDS011;64029;48.244;9.188;2024-03-08T09:41:42;21.73;;;12.53;;
75450;SDS011;64029;48.244;9.188;2024-03-08T09:44:09;29.70;;;16.03;;
75450;SDS011;64029;48.244;9.188;2024-03-08T09:46:38;24.70;;;14.00;;
75450;SDS011;64029;48.244;9.188;2024-03-08T09:49:05;26.73;;;14.30;;
75450;SDS011;64029;48.244;9.188;2024-03-08T09:51:34;27.60;;;13.80;;
75450;SDS011;64029;48.244;9.188;2024-03-08T09:54:01;24.53;;;15.10;;
75450;SDS011;64029;48.244;9.188;2024-03-08T09:56:29;30.83;;;15.57;;
75450;SDS011;64029;48.244;9.188;2024-03-08T09:58:59;26.20;;;15.90;;
75450;SDS011;64029;48.244;9.188;2024-03-08T10:01:44;29.87;;;15.20;;
75450;SDS011;64029;48.244;9.188;2024-03-08T10:04:11;23.70;;;14.23;;
75450;SDS011;64029;48.244;9.188;2024-03-08T10:06:39;24.63;;;14.97;;
75450;SDS011;64029;48.244;9.188;2024-03-08T10:09:06;26.97;;;15.20;;
75450;SDS011;64029;48.244;9.188;2024-03-08T10:11:35;30.00;;;16.20;;
75450;SDS011;64029;48.244;9.188;2024-03-08T10:14:02;26.43;;;16.40;;
75450;SDS011;64029;48.244;9.188;2024-03-08T10:16:29;29.10;;;16.53;;
75450;SDS011;64029;48.244;9.188;2024-03-08T10:18:57;26.03;;;15.50;;
75450;SDS011;64029;48.244;9.188;2024-03-08T10:21:25;27.47;;;15.17;;
75450;SDS011;64029;48.244;9.188;2024-03-08T10:23:53;26.40;;;15.77;;
75450;SDS011;64029;48.244;9.188;2024-03-08T10:26:21;29.67;;;16.03;;
75450;SDS011;64029;48.244;9.188;2024-03-08T10:28:48;28.10;;;16.27;;
75450;SDS011;64029;48.244;9.188;2024-03-08T10:31:17;26.97;;;15.13;;
75450;SDS011;64029;48.244;9.188;2024-03-08T10:33:45;27.27;;;15.50;;
75450;SDS011;64029;48.244;9.188;2024-03-08T10:36:14;25.00;;;15.03;;
75450;SDS011;64029;48.244;9.188;2024-03-08T10:38:41;32.57;;;17.97;;
75450;SDS011;64029;48.244;9.188;2024-03-08T10:41:12;31.33;;;16.03;;
75450;SDS011;64029;48.244;9.188;2024-03-08T10:43:43;28.37;;;16.50;;
75450;SDS011;64029;48.244;9.188;2024-03-08T10:46:29;32.00;;;17.20;;
75450;SDS011;64029;48.244;9.188;2024-03-08T10:49:00;35.03;;;20.50;;
75450;SDS011;64029;48.244;9.188;2024-03-08T10:51:32;30.50;;;17.87;;
75450;SDS011;64029;48.244;9.188;2024-03-08T10:53:59;34.20;;;18.23;;
75450;SDS011;64029;48.244;9.188;2024-03-08T10:56:28;31.33;;;16.17;;
75450;SDS011;64029;48.244;9.188;2024-03-08T10:58:55;31.70;;;18.73;;
75450;SDS011;64029;48.244;9.188;2024-03-08T11:01:22;35.50;;;19.53;;
75450;SDS011;64029;48.244;9.188;2024-03-08T11:03:51;30.43;;;17.17;;
75450;SDS011;64029;48.244;9.188;2024-03-08T11:06:19;30.90;;;18.13;;
75450;SDS011;64029;48.244;9.188;2024-03-08T11:08:50;29.40;;;18.47;;
75450;SDS011;64029;48.244;9.188;2024-03-08T11:11:23;31.50;;;17.87;;
75450;SDS011;64029;48.244;9.188;2024-03-08T11:13:55;26.43;;;14.93;;
75450;SDS011;64029;48.244;9.188;2024-03-08T11:16:38;29.63;;;17.17;;
75450;SDS011;64029;48.244;9.188;2024-03-08T11:19:23;31.33;;;18.47;;
75450;SDS011;64029;48.244;9.188;2024-03-08T11:24:28;32.40;;;18.27;;
75450;SDS011;64029;48.244;9.188;2024-03-08T11:27:04;32.03;;;17.47;;
75450;SDS011;64029;48.244;9.188;2024-03-08T11:29:37;30.07;;;18.63;;
75450;SDS011;64029;48.244;9.188;2024-03-08T11:32:08;33.40;;;19.90;;
75450;SDS011;64029;48.244;9.188;2024-03-08T11:34:36;33.83;;;18.93;;
75450;SDS011;64029;48.244;9.188;2024-03-08T11:37:04;37.60;;;20.67;;
75450;SDS011;64029;48.244;9.188;2024-03-08T11:39:36;33.70;;;20.10;;
75450;SDS011;64029;48.244;9.188;2024-03-08T11:42:03;36.53;;;21.13;;
75450;SDS011;64029;48.244;9.188;2024-03-08T11:44:31;31.70;;;19.10;;
75450;SDS011;64029;48.244;9.188;2024-03-08T11:46:58;36.67;;;20.30;;
75450;SDS011;64029;48.244;9.188;2024-03-08T11:49:25;30.67;;;17.50;;
75450;SDS011;64029;48.244;9.188;2024-03-08T11:51:52;30.43;;;17.80;;
75450;SDS011;64029;48.244;9.188;2024-03-08T11:54:20;34.40;;;18.60;;
75450;SDS011;64029;48.244;9.188;2024-03-08T11:56:49;44.87;;;21.03;;
75450;SDS011;64029;48.244;9.188;2024-03-08T11:59:18;36.90;;;19.63;;
75450;SDS011;64029;48.244;9.188;2024-03-08T12:01:57;36.03;;;19.90;;
75450;SDS011;64029;48.244;9.188;2024-03-08T12:04:28;34.60;;;18.53;;
75450;SDS011;64029;48.244;9.188;2024-03-08T12:06:56;33.00;;;18.43;;
75450;SDS011;64029;48.244;9.188;2024-03-08T12:09:25;33.17;;;19.90;;
75450;SDS011;64029;48.244;9.188;2024-03-08T12:11:53;28.17;;;17.17;;
75450;SDS011;64029;48.244;9.188;2024-03-08T12:14:20;35.73;;;18.67;;
75450;SDS011;64029;48.244;9.188;2024-03-08T12:16:48;34.97;;;18.17;;
75450;SDS011;64029;48.244;9.188;2024-03-08T12:19:17;34.73;;;18.17;;
75450;SDS011;64029;48.244;9.188;2024-03-08T12:21:44;33.00;;;18.70;;
75450;SDS011;64029;48.244;9.188;2024-03-08T12:24:14;34.47;;;19.30;;
75450;SDS011;64029;48.244;9.188;2024-03-08T12:26:44;32.90;;;19.60;;
75450;SDS011;64029;48.244;9.188;2024-03-08T12:29:18;30.10;;;19.03;;
75450;SDS011;64029;48.244;9.188;2024-03-08T12:31:47;30.30;;;19.00;;
75450;SDS011;64029;48.244;9.188;2024-03-08T12:34:17;34.17;;;18.93;;
75450;SDS011;64029;48.244;9.188;2024-03-08T12:36:46;29.60;;;17.70;;
75450;SDS011;64029;48.244;9.188;2024-03-08T12:39:15;33.23;;;18.33;;
75450;SDS011;64029;48.244;9.188;2024-03-08T12:41:47;31.80;;;17.37;;
75450;SDS011;64029;48.244;9.188;2024-03-08T12:44:14;30.80;;;17.37;;
75450;SDS011;64029;48.244;9.188;2024-03-08T12:46:43;29.30;;;16.90;;
75450;SDS011;64029;48.244;9.188;2024-03-08T12:49:10;29.23;;;17.00;;
75450;SDS011;64029;48.244;9.188;2024-03-08T12:51:37;27.47;;;16.60;;
75450;SDS011;64029;48.244;9.188;2024-03-08T12:54:04;30.80;;;17.90;;
75450;SDS011;64029;48.244;9.188;2024-03-08T12:56:32;29.37;;;17.20;;
75450;SDS011;64029;48.244;9.188;2024-03-08T12:59:00;29.70;;;18.10;;
75450;SDS011;64029;48.244;9.188;2024-03-08T13:01:28;30.73;;;18.27;;
75450;SDS011;64029;48.244;9.188;2024-03-08T13:03:56;26.40;;;17.60;;
75450;SDS011;64029;48.244;9.188;2024-03-08T13:06:23;27.97;;;16.77;;
75450;SDS011;64029;48.244;9.188;2024-03-08T13:08:51;30.63;;;17.13;;
75450;SDS011;64029;48.244;9.188;2024-03-08T13:11:18;33.10;;;19.20;;
75450;SDS011;64029;48.244;9.188;2024-03-08T13:13:45;31.30;;;18.30;;
75450;SDS011;64029;48.244;9.188;2024-03-08T13:16:12;31.27;;;17.90;;
75450;SDS011;64029;48.244;9.188;2024-03-08T13:18:40;31.50;;;17.57;;
75450;SDS011;64029;48.244;9.188;2024-03-08T13:21:09;28.17;;;17.70;;
75450;SDS011;64029;48.244;9.188;2024-03-08T13:23:39;27.07;;;17.30;;
75450;SDS011;64029;48.244;9.188;2024-03-08T13:26:13;27.67;;;17.13;;
75450;SDS011;64029;48.244;9.188;2024-03-08T13:28:41;30.30;;;17.97;;
75450;SDS011;64029;48.244;9.188;2024-03-08T13:31:08;31.40;;;17.00;;
75450;SDS011;64029;48.244;9.188;2024-03-08T13:33:35;25.60;;;17.23;;
75450;SDS011;64029;48.244;9.188;2024-03-08T13:36:04;27.77;;;16.80;;
75450;SDS011;64029;48.244;9.188;2024-03-08T13:38:40;27.37;;;17.50;;
75450;SDS011;64029;48.244;9.188;2024-03-08T13:41:09;25.17;;;14.63;;
75450;SDS011;64029;48.244;9.188;2024-03-08T13:43:36;24.97;;;15.77;;
75450;SDS011;64029;48.244;9.188;2024-03-08T13:46:05;24.60;;;15.70;;
75450;SDS011;64029;48.244;9.188;2024-03-08T13:48:32;29.83;;;17.40;;
75450;SDS011;64029;48.244;9.188;2024-03-08T13:50:59;31.20;;;16.53;;
75450;SDS011;64029;48.244;9.188;2024-03-08T13:53:25;26.23;;;15.77;;
75450;SDS011;64029;48.244;9.188;2024-03-08T13:55:54;22.63;;;14.87;;
75450;SDS011;64029;48.244;9.188;2024-03-08T13:58:21;23.67;;;14.63;;
75450;SDS011;64029;48.244;9.188;2024-03-08T14:00:48;24.47;;;15.17;;
75450;SDS011;64029;48.244;9.188;2024-03-08T14:03:16;29.07;;;16.27;;
75450;SDS011;64029;48.244;9.188;2024-03-08T14:05:43;24.80;;;14.83;;
75450;SDS011;64029;48.244;9.188;2024-03-08T14:08:11;24.87;;;15.70;;
75450;SDS011;64029;48.244;9.188;2024-03-08T14:10:39;29.00;;;15.80;;
75450;SDS011;64029;48.244;9.188;2024-03-08T14:13:09;25.17;;;14.77;;
75450;SDS011;64029;48.244;9.188;2024-03-08T14:15:36;26.70;;;16.00;;
75450;SDS011;64029;48.244;9.188;2024-03-08T14:18:07;24.40;;;14.43;;
75450;SDS011;64029;48.244;9.188;2024-03-08T14:20:34;27.47;;;15.30;;
75450;SDS011;64029;48.244;9.188;2024-03-08T14:23:04;29.37;;;14.20;;
75450;SDS011;64029;48.244;9.188;2024-03-08T14:25:33;22.27;;;15.33;;
75450;SDS011;64029;48.244;9.188;2024-03-08T14:28:00;22.97;;;14.30;;
75450;SDS011;64029;48.244;9.188;2024-03-08T14:30:33;20.80;;;13.63;;